Time;durP1;ratioP1;P1;durP2;ratioP2;P2;SDS_P1;SDS_P2;PMS_P1;PMS_P2;Temp;Humidity;BMP_temperature;BMP_pressure;BME280_temperature;BME280_humidity;BME280_pressure;Samples;Min_cycle;Max_cycle;Signal;HPM_P1;HPM_P2
2021/01/08 00:01:40;;;;;;;6.47;4.18;;;;;;;-1.50;81.72;100211.72;5084064;28;20043;-65
2021/01/08 00:04:05;;;;;;;6.82;3.63;;;;;;;-1.51;81.56;100203.25;5083995;28;20111;-64
2021/01/08 00:06:31;;;;;;;7.20;4.65;;;;;;;-1.49;81.84;100221.13;5082629;28;20024;-64
2021/01/08 00:08:56;;;;;;;8.68;5.15;;;;;;;-1.50;81.92;100219.38;5084190;28;20024;-64
2021/01/08 00:11:24;;;;;;;8.80;4.90;;;;;;;-1.50;81.72;100216.81;5082438;28;20027;-64
2021/01/08 00:13:49;;;;;;;10.07;4.35;;;;;;;-1.46;82.04;100217.81;5083879;28;20027;-64
2021/01/08 00:16:15;;;;;;;9.55;4.75;;;;;;;-1.50;81.94;100209.19;5083906;28;20016;-65
2021/01/08 00:18:40;;;;;;;9.27;5.10;;;;;;;-1.48;81.93;100212.66;5082394;28;20035;-64
2021/01/08 00:21:06;;;;;;;8.95;4.85;;;;;;;-1.48;81.98;100216.88;5083853;28;20024;-63
2021/01/08 00:23:31;;;;;;;8.23;4.60;;;;;;;-1.47;82.10;100221.19;5083565;28;20070;-64
2021/01/08 00:25:56;;;;;;;7.80;4.72;;;;;;;-1.46;81.97;100222.91;5083417;28;20032;-64
2021/01/08 00:28:22;;;;;;;8.95;5.18;;;;;;;-1.45;82.17;100224.66;5083857;28;20021;-64
2021/01/08 00:30:47;;;;;;;8.68;5.25;;;;;;;-1.41;82.09;100224.84;5083658;28;20023;-63
2021/01/08 00:33:12;;;;;;;6.47;3.67;;;;;;;-1.38;81.89;100224.94;5083721;28;20052;-64
2021/01/08 00:35:41;;;;;;;5.57;2.50;;;;;;;-1.36;82.16;100225.00;5082447;28;20025;-64
2021/01/08 00:38:07;;;;;;;7.57;5.38;;;;;;;-1.35;82.13;100221.63;5083844;28;20035;-63
2021/01/08 00:40:33;;;;;;;8.00;4.15;;;;;;;-1.31;82.05;100222.63;5083406;28;20020;-64
2021/01/08 00:42:59;;;;;;;7.53;4.75;;;;;;;-1.35;82.08;100219.09;5083583;28;20050;-63
2021/01/08 00:45:24;;;;;;;10.65;5.53;;;;;;;-1.29;81.98;100229.50;5083305;28;20020;-64
2021/01/08 00:47:50;;;;;;;6.57;3.45;;;;;;;-1.32;81.84;100226.84;5083108;28;20044;-63
2021/01/08 00:50:17;;;;;;;7.00;3.50;;;;;;;-1.36;82.01;100212.28;5083382;28;20029;-64
2021/01/08 00:52:42;;;;;;;7.68;4.25;;;;;;;-1.32;82.13;100221.75;5083366;28;20021;-64
2021/01/08 00:55:08;;;;;;;4.90;3.25;;;;;;;-1.30;82.06;100222.69;5083151;28;20023;-65
2021/01/08 00:57:34;;;;;;;5.15;3.70;;;;;;;-1.28;81.98;100220.19;5081965;28;20025;-64
2021/01/08 00:59:59;;;;;;;7.20;4.55;;;;;;;-1.29;82.17;100228.63;5083273;28;20025;-63
2021/01/08 01:02:25;;;;;;;7.50;4.50;;;;;;;-1.31;81.88;100227.72;5083461;28;20028;-65
2021/01/08 01:04:50;;;;;;;6.80;4.47;;;;;;;-1.28;81.99;100217.66;5082552;28;20031;-64
2021/01/08 01:07:16;;;;;;;5.95;3.25;;;;;;;-1.26;82.02;100233.81;5083174;28;20100;-64
2021/01/08 01:09:41;;;;;;;8.10;5.15;;;;;;;-1.24;81.99;100227.13;5082977;28;20032;-63
2021/01/08 01:12:06;;;;;;;11.07;4.88;;;;;;;-1.22;82.08;100232.28;5083187;28;20024;-64
2021/01/08 01:14:32;;;;;;;7.63;4.40;;;;;;;-1.22;82.07;100224.63;5083404;28;20469;-64
2021/01/08 01:16:57;;;;;;;7.10;3.88;;;;;;;-1.23;82.30;100228.84;5083234;28;20028;-64
2021/01/08 01:19:23;;;;;;;7.57;4.13;;;;;;;-1.22;82.04;100224.63;5083154;28;20025;-64
2021/01/08 01:21:48;;;;;;;6.25;3.55;;;;;;;-1.20;82.14;100230.66;5083257;28;20032;-64
2021/01/08 01:24:13;;;;;;;5.75;3.33;;;;;;;-1.20;82.04;100223.00;5082484;28;20075;-64
2021/01/08 01:26:39;;;;;;;8.20;4.20;;;;;;;-1.21;82.15;100222.13;5083133;28;20028;-63
2021/01/08 01:29:05;;;;;;;8.13;4.82;;;;;;;-1.26;82.34;100216.88;5083098;28;20036;-63
2021/01/08 01:31:30;;;;;;;7.32;4.53;;;;;;;-1.21;82.30;100224.69;5083007;28;20332;-64
2021/01/08 01:33:56;;;;;;;8.88;5.35;;;;;;;-1.25;82.21;100220.31;5083047;28;20012;-64
2021/01/08 01:36:21;;;;;;;7.03;4.20;;;;;;;-1.20;82.22;100228.13;5081685;28;20024;-63
2021/01/08 01:38:47;;;;;;;6.60;3.75;;;;;;;-1.19;82.34;100222.19;5083017;28;20463;-64
2021/01/08 01:41:12;;;;;;;6.72;4.40;;;;;;;-1.17;82.45;100225.69;5082472;28;20095;-65
2021/01/08 01:43:37;;;;;;;7.50;4.05;;;;;;;-1.16;82.35;100219.75;5082747;28;20523;-65
2021/01/08 01:46:04;;;;;;;5.82;3.58;;;;;;;-1.12;82.25;100227.56;5082347;28;20036;-63
2021/01/08 01:48:29;;;;;;;6.85;4.05;;;;;;;-1.12;82.36;100229.28;5083172;28;20020;-64
2021/01/08 01:50:55;;;;;;;4.93;3.17;;;;;;;-1.12;82.39;100227.56;5082766;28;20048;-64
2021/01/08 01:53:21;;;;;;;8.10;4.75;;;;;;;-1.08;82.30;100228.56;5082799;28;20537;-64
2021/01/08 01:55:47;;;;;;;5.55;2.97;;;;;;;-1.07;82.21;100227.72;5082544;28;20611;-64
2021/01/08 01:58:13;;;;;;;6.63;3.70;;;;;;;-1.09;82.11;100229.38;5082940;28;20044;-64
2021/01/08 02:00:38;;;;;;;7.63;4.65;;;;;;;-1.09;82.15;100223.41;5084659;28;20048;-64
2021/01/08 02:03:25;;;;;;;5.53;3.05;;;;;;;-1.09;82.25;100229.38;5086451;28;20016;-64
2021/01/08 02:05:56;;;;;;;6.20;3.28;;;;;;;-1.15;82.31;100235.09;5086219;28;20104;-65
2021/01/08 02:08:24;;;;;;;8.07;3.72;;;;;;;-1.16;82.29;100227.41;5086559;28;20020;-63
2021/01/08 02:10:58;;;;;;;4.72;2.95;;;;;;;-1.13;82.36;100230.94;5085873;28;20123;-63
2021/01/08 02:13:34;;;;;;;7.43;4.03;;;;;;;-1.10;82.41;100240.34;5086347;28;20056;-66
2021/01/08 02:16:01;;;;;;;5.55;2.95;;;;;;;-1.11;82.49;100233.53;5085974;28;20020;-64
2021/01/08 02:18:27;;;;;;;8.48;4.60;;;;;;;-1.11;82.44;100246.28;5086137;28;20044;-64
2021/01/08 02:20:59;;;;;;;6.75;4.00;;;;;;;-1.13;82.40;100232.59;5086069;28;20028;-64
2021/01/08 02:23:34;;;;;;;7.25;4.57;;;;;;;-1.14;82.32;100236.84;5086044;28;20044;-64
2021/01/08 02:26:01;;;;;;;6.38;4.30;;;;;;;-1.13;82.50;100243.69;5085527;28;20050;-63
2021/01/08 02:28:28;;;;;;;5.70;3.58;;;;;;;-1.13;82.58;100238.59;5085873;28;20031;-64
2021/01/08 02:30:54;;;;;;;9.43;5.03;;;;;;;-1.09;82.33;100244.66;5085928;28;20028;-65
2021/01/08 02:33:20;;;;;;;7.45;4.10;;;;;;;-1.06;82.71;100242.22;5086016;28;20056;-64
2021/01/08 02:35:49;;;;;;;8.02;4.75;;;;;;;-1.01;82.47;100242.41;5085695;28;20048;-65
2021/01/08 02:38:18;;;;;;;5.38;3.25;;;;;;;-1.05;82.49;100237.97;5085996;28;20423;-65
2021/01/08 02:40:45;;;;;;;5.63;3.10;;;;;;;-1.14;82.49;100215.59;5085566;28;20051;-65
2021/01/08 02:43:12;;;;;;;7.90;4.25;;;;;;;-1.03;82.34;100239.78;5085800;28;20362;-65
2021/01/08 02:45:37;;;;;;;4.60;3.08;;;;;;;-1.06;82.47;100229.50;5085333;28;20059;-64
2021/01/08 02:48:03;;;;;;;5.47;3.05;;;;;;;-1.06;82.37;100237.13;5085562;28;20127;-64
2021/01/08 02:50:28;;;;;;;6.25;4.55;;;;;;;-1.07;82.49;100232.81;5085445;28;20088;-64
2021/01/08 02:52:59;;;;;;;6.90;2.30;;;;;;;-1.07;82.47;100240.47;5085445;28;20029;-64
2021/01/08 02:55:30;;;;;;;4.22;2.63;;;;;;;-1.07;82.47;100234.53;5085169;28;20020;-64
2021/01/08 02:57:59;;;;;;;6.13;3.75;;;;;;;-1.10;82.53;100236.97;5085560;28;20020;-64
2021/01/08 03:00:27;;;;;;;7.15;2.72;;;;;;;-1.10;82.72;100242.91;5085241;28;20044;-64
2021/01/08 03:02:52;;;;;;;5.38;3.25;;;;;;;-1.12;82.38;100235.22;5085221;28;20020;-66
2021/01/08 03:05:20;;;;;;;9.63;4.38;;;;;;;-1.12;82.45;100230.13;5084976;28;20432;-64
2021/01/08 03:07:46;;;;;;;5.07;3.03;;;;;;;-1.09;82.44;100243.78;5083713;28;20021;-64
2021/01/08 03:10:12;;;;;;;10.52;3.55;;;;;;;-1.07;82.43;100232.81;5084503;28;20044;-63
2021/01/08 03:12:38;;;;;;;4.80;2.50;;;;;;;-1.09;82.30;100226.84;5084775;28;20035;-64
2021/01/08 03:15:08;;;;;;;4.70;2.40;;;;;;;-1.09;82.15;100244.66;5084683;28;20016;-64
2021/01/08 03:17:33;;;;;;;7.47;3.97;;;;;;;-1.10;82.25;100242.91;5084835;28;20100;-64
2021/01/08 03:19:59;;;;;;;4.03;1.75;;;;;;;-1.13;82.14;100243.69;5084887;28;20055;-64
2021/01/08 03:22:24;;;;;;;8.52;4.22;;;;;;;-1.15;82.46;100236.81;5084467;28;20538;-63
2021/01/08 03:24:49;;;;;;;3.65;2.13;;;;;;;-1.20;82.30;100228.13;5084271;28;20021;-63
2021/01/08 03:27:15;;;;;;;5.30;3.53;;;;;;;-1.19;82.42;100237.47;5084633;28;20111;-63
2021/01/08 03:29:40;;;;;;;6.90;3.50;;;;;;;-1.16;82.50;100237.59;5084542;28;20028;-64
2021/01/08 03:32:05;;;;;;;3.53;2.40;;;;;;;-1.19;82.50;100229.84;5084721;28;20024;-64
2021/01/08 03:34:30;;;;;;;5.13;2.78;;;;;;;-1.12;82.41;100236.91;5084439;28;20047;-64
2021/01/08 03:36:56;;;;;;;5.03;3.28;;;;;;;-1.17;82.44;100226.56;5084548;28;20067;-65
2021/01/08 03:39:21;;;;;;;6.13;3.80;;;;;;;-1.14;82.30;100230.88;5084118;28;20433;-64
2021/01/08 03:41:46;;;;;;;6.10;3.33;;;;;;;-1.16;82.53;100215.53;5084277;28;20034;-64
2021/01/08 03:44:12;;;;;;;7.70;3.97;;;;;;;-1.06;82.25;100229.50;5084098;28;20032;-64
2021/01/08 03:46:37;;;;;;;7.43;4.00;;;;;;;-1.03;82.25;100231.28;5084123;28;20021;-65
2021/01/08 03:49:05;;;;;;;7.78;2.83;;;;;;;-1.03;82.09;100234.69;5084141;28;20124;-64
2021/01/08 03:51:30;;;;;;;6.45;3.90;;;;;;;-1.04;82.15;100234.63;5084089;28;20031;-64
2021/01/08 03:53:56;;;;;;;3.90;2.33;;;;;;;-1.08;82.17;100223.47;5084253;28;20025;-64
2021/01/08 03:56:21;;;;;;;3.65;2.60;;;;;;;-1.06;82.23;100229.50;5083770;28;20035;-64
2021/01/08 03:58:47;;;;;;;7.20;3.90;;;;;;;-1.05;82.26;100232.88;5084151;28;20051;-64
2021/01/08 04:01:13;;;;;;;6.50;3.67;;;;;;;-1.04;82.11;100227.84;5084159;28;20266;-65
2021/01/08 04:03:38;;;;;;;5.20;2.85;;;;;;;-1.09;82.23;100218.31;5084269;28;20053;-63
2021/01/08 04:06:04;;;;;;;6.68;3.80;;;;;;;-1.06;82.25;100229.50;5083636;28;20385;-64
2021/01/08 04:08:29;;;;;;;6.25;3.63;;;;;;;-1.03;82.17;100236.38;5084121;28;20032;-64
2021/01/08 04:10:54;;;;;;;4.47;2.75;;;;;;;-1.00;82.24;100236.47;5083667;28;20047;-64
2021/01/08 04:13:20;;;;;;;7.70;3.92;;;;;;;-0.96;82.14;100234.91;5083890;28;20046;-64
2021/01/08 04:15:45;;;;;;;8.38;3.42;;;;;;;-0.94;82.16;100238.41;5083799;28;20051;-64
2021/01/08 04:18:10;;;;;;;6.60;4.03;;;;;;;-0.95;82.09;100241.72;5083694;28;20109;-63
2021/01/08 04:20:36;;;;;;;5.07;3.28;;;;;;;-0.95;82.07;100246.84;5083715;28;20029;-63
2021/01/08 04:23:01;;;;;;;8.07;4.03;;;;;;;-0.92;82.18;100241.84;5082652;28;20040;-64
2021/01/08 04:25:26;;;;;;;7.63;4.10;;;;;;;-0.87;82.07;100245.44;5083110;28;20455;-63
2021/01/08 04:27:52;;;;;;;7.63;3.38;;;;;;;-0.86;81.82;100238.66;5083508;28;20020;-64
2021/01/08 04:30:17;;;;;;;5.60;3.13;;;;;;;-0.89;81.98;100241.94;5083530;28;20020;-64
2021/01/08 04:32:43;;;;;;;6.15;3.45;;;;;;;-0.84;81.83;100244.66;5083451;28;20402;-64
2021/01/08 04:35:09;;;;;;;2.53;1.45;;;;;;;-0.87;81.83;100245.44;5083484;28;20043;-64
2021/01/08 04:37:34;;;;;;;7.03;3.63;;;;;;;-0.98;81.96;100233.97;5083808;28;20024;-64
2021/01/08 04:39:59;;;;;;;4.63;3.50;;;;;;;-0.89;81.74;100247.94;5083195;28;20024;-64
2021/01/08 04:42:25;;;;;;;5.90;3.10;;;;;;;-0.87;82.03;100255.63;5083571;28;20035;-64
2021/01/08 04:44:50;;;;;;;5.40;3.85;;;;;;;-0.89;82.09;100252.16;5083333;28;20020;-63
2021/01/08 04:47:16;;;;;;;4.47;3.05;;;;;;;-0.89;81.99;100247.94;5083418;28;20509;-63
2021/01/08 04:49:42;;;;;;;8.23;4.45;;;;;;;-0.84;81.93;100250.63;5083301;28;20030;-64
2021/01/08 04:52:09;;;;;;;5.45;1.88;;;;;;;-0.84;81.83;100249.75;5083478;28;20023;-64
2021/01/08 04:54:35;;;;;;;6.45;3.67;;;;;;;-0.90;82.06;100246.19;5082802;28;20079;-64
2021/01/08 04:57:02;;;;;;;6.80;3.30;;;;;;;-0.89;81.90;100253.03;5081998;28;20021;-64
2021/01/08 04:59:28;;;;;;;5.15;3.58;;;;;;;-0.86;81.74;100259.91;5083092;28;20016;-63
2021/01/08 05:01:54;;;;;;;7.35;2.95;;;;;;;-0.86;81.88;100254.81;5083448;28;20025;-63
2021/01/08 05:04:19;;;;;;;6.57;3.63;;;;;;;-0.82;81.79;100260.88;5083141;28;20031;-63
2021/01/08 05:06:45;;;;;;;5.85;3.60;;;;;;;-0.81;81.75;100266.03;5083156;28;20028;-63
2021/01/08 05:09:10;;;;;;;6.93;3.28;;;;;;;-0.82;81.62;100256.66;5083288;28;20051;-64
2021/01/08 05:11:35;;;;;;;5.15;3.30;;;;;;;-0.79;81.59;100268.66;5081930;28;20077;-63
2021/01/08 05:14:03;;;;;;;3.15;2.58;;;;;;;-0.82;81.65;100264.31;5083194;28;20411;-63
2021/01/08 05:16:31;;;;;;;5.65;3.63;;;;;;;-0.81;81.44;100270.25;5083112;28;20027;-64
2021/01/08 05:18:58;;;;;;;7.47;4.10;;;;;;;-0.84;81.57;100260.84;5083305;28;20025;-65
2021/01/08 05:21:25;;;;;;;3.22;2.13;;;;;;;-0.85;81.94;100245.50;5081891;28;20086;-64
2021/01/08 05:23:55;;;;;;;6.38;3.85;;;;;;;-0.78;81.55;100271.25;5082845;28;20051;-64
2021/01/08 05:26:23;;;;;;;5.90;3.28;;;;;;;-0.78;81.44;100262.72;5082938;28;20029;-64
2021/01/08 05:28:50;;;;;;;5.43;3.42;;;;;;;-0.78;81.59;100272.91;5083157;28;20104;-64
2021/01/08 05:31:18;;;;;;;5.70;3.28;;;;;;;-0.81;81.59;100272.81;5082994;28;20021;-64
2021/01/08 05:33:43;;;;;;;6.00;4.00;;;;;;;-0.86;81.53;100274.34;5083335;28;20032;-62
2021/01/08 05:36:12;;;;;;;6.32;3.95;;;;;;;-0.82;81.73;100284.72;5086522;28;20021;-64
2021/01/08 05:38:42;;;;;;;8.05;4.55;;;;;;;-0.78;81.69;100284.00;5086368;28;20033;-64
2021/01/08 05:41:10;;;;;;;4.82;3.22;;;;;;;-0.73;81.34;100285.81;5086162;28;20344;-63
2021/01/08 05:43:38;;;;;;;6.20;4.18;;;;;;;-0.75;81.50;100286.66;5086620;28;20021;-64
2021/01/08 05:46:15;;;;;;;2.30;1.88;;;;;;;-0.76;81.47;100286.59;5086380;28;20025;-64
2021/01/08 05:48:47;;;;;;;7.72;4.15;;;;;;;-0.72;81.62;100277.38;5086757;28;20036;-64
2021/01/08 05:51:15;;;;;;;5.80;3.70;;;;;;;-0.71;81.63;100271.47;5085104;28;20024;-63
2021/01/08 05:53:42;;;;;;;4.43;2.42;;;;;;;-0.66;81.43;100281.03;5086435;28;20046;-64
2021/01/08 05:56:13;;;;;;;7.80;3.60;;;;;;;-0.75;81.46;100275.56;5086132;28;20044;-64
2021/01/08 05:58:39;;;;;;;5.00;2.65;;;;;;;-0.68;81.27;100281.78;5086666;28;20105;-63
2021/01/08 06:01:04;;;;;;;5.60;3.28;;;;;;;-0.68;81.27;100291.97;5086500;28;20536;-64
2021/01/08 06:03:31;;;;;;;5.35;3.15;;;;;;;-0.73;81.29;100280.72;5086392;28;20029;-64
2021/01/08 06:06:03;;;;;;;9.38;4.38;;;;;;;-0.72;81.30;100291.00;5086241;28;20428;-64
2021/01/08 06:08:31;;;;;;;4.88;3.17;;;;;;;-0.68;81.42;100291.97;5068523;28;20048;-63
2021/01/08 06:10:58;;;;;;;4.95;3.17;;;;;;;-0.72;81.10;100297.78;5086133;28;20029;-63
2021/01/08 06:13:31;;;;;;;7.78;3.25;;;;;;;-0.77;81.37;100300.16;5086310;28;20016;-64
2021/01/08 06:15:57;;;;;;;7.25;2.92;;;;;;;-0.76;81.48;100284.06;5085808;28;20080;-64
2021/01/08 06:18:25;;;;;;;6.45;4.25;;;;;;;-0.86;81.44;100285.41;5085973;28;20024;-63
2021/01/08 06:21:03;;;;;;;7.32;3.97;;;;;;;-0.74;81.33;100297.72;5085961;28;20043;-64
2021/01/08 06:23:32;;;;;;;10.63;3.67;;;;;;;-0.72;81.25;100296.13;5085857;28;20512;-64
2021/01/08 06:25:59;;;;;;;5.20;3.45;;;;;;;-0.75;81.36;100301.94;5085485;28;20029;-63
2021/01/08 06:28:34;;;;;;;7.63;4.38;;;;;;;-0.73;81.11;100303.69;5086166;28;20020;-64
2021/01/08 06:31:04;;;;;;;2.53;1.80;;;;;;;-0.77;81.27;100298.47;5085809;28;20111;-64
2021/01/08 06:33:36;;;;;;;5.28;3.83;;;;;;;-0.72;81.14;100301.22;5085831;28;20439;-64
2021/01/08 06:36:28;;;;;;;4.07;2.70;;;;;;;-0.73;81.28;100312.19;5085849;28;20071;-65
2021/01/08 06:38:56;;;;;;;6.95;3.55;;;;;;;-0.68;81.10;100309.81;5084826;28;20356;-64
2021/01/08 06:41:22;;;;;;;6.25;3.95;;;;;;;-0.70;81.08;100306.38;5084022;28;20059;-64
2021/01/08 06:44:10;;;;;;;5.57;3.75;;;;;;;-0.69;81.00;100308.97;5085484;28;20115;-65
2021/01/08 06:46:39;;;;;;;2.83;1.98;;;;;;;-0.70;81.18;100319.97;5084635;28;20029;-65
2021/01/08 06:49:07;;;;;;;6.40;3.67;;;;;;;-0.72;80.90;100316.50;5085578;28;20029;-63
2021/01/08 06:51:37;;;;;;;5.50;2.92;;;;;;;-0.74;81.17;100310.47;5085564;28;20016;-64
2021/01/08 06:54:05;;;;;;;4.93;3.08;;;;;;;-0.80;81.00;100303.47;5104008;22;20053;-69
2021/01/08 06:56:52;;;;;;;5.13;3.13;;;;;;;-0.73;80.99;100317.31;5064717;28;20017;-70
2021/01/08 06:59:17;;;;;;;5.63;3.38;;;;;;;-0.82;81.16;100306.78;5064829;28;20076;-70
2021/01/08 07:02:14;;;;;;;5.40;2.85;;;;;;;-0.70;81.28;100325.06;5080472;28;20016;-69
2021/01/08 07:04:42;;;;;;;7.57;4.30;;;;;;;-0.72;81.11;100323.28;5064977;28;20020;-68
2021/01/08 07:07:12;;;;;;;3.92;2.33;;;;;;;-0.68;81.00;100327.66;5065204;28;20029;-66
2021/01/08 07:09:39;;;;;;;7.25;4.10;;;;;;;-0.67;81.06;100344.72;5064801;28;20021;-68
2021/01/08 07:12:07;;;;;;;3.88;2.88;;;;;;;-0.67;80.86;100326.88;5064864;28;20473;-71
2021/01/08 07:14:35;;;;;;;6.85;3.97;;;;;;;-0.79;80.70;100317.97;5065013;28;20020;-70
2021/01/08 07:17:04;;;;;;;4.25;2.20;;;;;;;-0.68;80.87;100330.22;5064894;28;20028;-69
2021/01/08 07:19:30;;;;;;;6.13;3.75;;;;;;;-0.69;80.83;100320.84;5080119;28;20013;-69
2021/01/08 07:21:59;;;;;;;4.28;2.38;;;;;;;-0.70;81.10;100329.31;5064904;28;20025;-70
2021/01/08 07:24:29;;;;;;;5.35;3.40;;;;;;;-0.64;81.09;100344.84;5079357;28;20021;-69
2021/01/08 07:27:16;;;;;;;7.28;3.33;;;;;;;-0.65;80.91;100340.53;5064358;28;20048;-69
2021/01/08 07:29:58;;;;;;;6.45;3.92;;;;;;;-0.66;81.02;100351.53;5064448;28;20073;-69
2021/01/08 07:32:49;;;;;;;6.82;3.70;;;;;;;-0.64;81.01;100353.31;5064554;28;20498;-69
2021/01/08 07:35:17;;;;;;;7.13;3.50;;;;;;;-0.65;80.99;100348.19;5064249;28;20040;-69
2021/01/08 07:38:06;;;;;;;6.05;3.50;;;;;;;-0.64;81.12;100353.31;5064172;28;20013;-69
2021/01/08 07:40:39;;;;;;;6.82;3.97;;;;;;;-0.70;81.15;100350.56;5063411;28;20083;-68
2021/01/08 07:43:11;;;;;;;6.55;3.60;;;;;;;-0.60;81.09;100356.00;5063424;28;20049;-69
2021/01/08 07:45:54;;;;;;;7.63;4.38;;;;;;;-0.59;80.98;100362.84;5063610;28;20017;-70
2021/01/08 07:48:27;;;;;;;7.18;3.88;;;;;;;-0.52;80.72;100375.00;5079790;28;20394;-71
2021/01/08 07:51:03;;;;;;;8.07;4.20;;;;;;;-0.57;80.97;100372.28;5064456;28;20051;-71
2021/01/08 07:53:44;;;;;;;7.95;4.85;;;;;;;-0.51;81.13;100372.50;5079459;28;20105;-71
2021/01/08 07:56:10;;;;;;;4.93;3.30;;;;;;;-0.52;81.06;100380.09;5064037;28;20045;-72
2021/01/08 07:58:36;;;;;;;6.80;3.70;;;;;;;-0.53;80.82;100375.81;5064393;28;20282;-70
2021/01/08 08:01:06;;;;;;;7.60;4.10;;;;;;;-0.53;80.87;100379.22;5079263;28;20021;-71
2021/01/08 08:03:31;;;;;;;5.72;3.10;;;;;;;-0.51;81.02;100381.81;5063738;28;20080;-71
2021/01/08 08:05:59;;;;;;;5.85;3.70;;;;;;;-0.51;80.72;100376.72;5063669;28;20017;-73
2021/01/08 08:08:25;;;;;;;9.75;4.88;;;;;;;-0.48;80.67;100387.06;5063666;28;20132;-72
2021/01/08 08:10:50;;;;;;;7.45;4.03;;;;;;;-0.47;81.00;100390.47;5063337;28;20425;-70
2021/01/08 08:13:25;;;;;;;7.22;5.03;;;;;;;-0.58;80.84;100373.09;5063730;28;20039;-71
2021/01/08 08:15:53;;;;;;;7.13;3.17;;;;;;;-0.42;81.00;100388.97;5063543;28;20396;-71
2021/01/08 08:18:19;;;;;;;8.60;4.20;;;;;;;-0.51;80.86;100374.16;5063878;28;20024;-71
2021/01/08 08:20:44;;;;;;;6.95;4.22;;;;;;;-0.40;80.77;100400.94;5078648;28;20028;-70
2021/01/08 08:23:17;;;;;;;5.88;3.90;;;;;;;-0.40;80.79;100402.66;5063146;28;20580;-70
2021/01/08 08:25:43;;;;;;;7.90;4.53;;;;;;;-0.44;80.76;100398.22;5061674;28;20112;-76
2021/01/08 08:28:10;;;;;;;4.38;2.78;;;;;;;-0.39;80.72;100412.03;5078856;28;20053;-75
2021/01/08 08:30:35;;;;;;;7.53;4.32;;;;;;;-0.44;80.60;100398.22;5063475;28;20102;-71
2021/01/08 08:33:04;;;;;;;7.35;3.60;;;;;;;-0.44;80.69;100404.22;5063373;28;20044;-71
2021/01/08 08:35:33;;;;;;;7.35;4.32;;;;;;;-0.40;80.74;100408.59;5062254;28;20017;-71
2021/01/08 08:37:59;;;;;;;5.15;2.92;;;;;;;-0.43;80.79;100417.84;5062198;28;20096;-71
2021/01/08 08:40:29;;;;;;;7.63;4.30;;;;;;;-0.41;80.87;100422.19;5061651;28;20048;-70
2021/01/08 08:43:00;;;;;;;5.95;3.80;;;;;;;-0.42;81.03;100417.91;5078648;28;20559;-71
2021/01/08 08:45:28;;;;;;;5.50;3.88;;;;;;;-0.41;80.69;100413.66;5078579;28;20093;-71
2021/01/08 08:47:55;;;;;;;8.05;3.90;;;;;;;-0.51;80.83;100413.31;5063573;28;20020;-71
2021/01/08 08:50:21;;;;;;;7.65;4.13;;;;;;;-0.35;80.99;100431.72;5062012;28;20465;-72
2021/01/08 08:52:48;;;;;;;6.43;4.50;;;;;;;-0.34;80.75;100433.47;5063098;28;20033;-72
2021/01/08 08:55:33;;;;;;;7.20;4.28;;;;;;;-0.30;80.60;100424.22;5062316;28;20397;-71
2021/01/08 08:58:00;;;;;;;7.60;4.50;;;;;;;-0.33;80.71;100422.44;5062349;28;20033;-75
2021/01/08 09:00:26;;;;;;;7.60;4.50;;;;;;;-0.21;80.75;100441.56;5062427;28;20087;-73
2021/01/08 09:02:51;;;;;;;7.22;4.50;;;;;;;-0.34;80.73;100420.72;5062809;28;20465;-71
2021/01/08 09:05:17;;;;;;;6.85;4.05;;;;;;;-0.20;80.73;100441.63;5062746;28;20059;-72
2021/01/08 09:07:56;;;;;;;8.15;3.85;;;;;;;-0.17;80.49;100440.88;5078268;28;20092;-72
2021/01/08 09:10:49;;;;;;;6.00;4.07;;;;;;;-0.20;80.41;100435.66;5066358;28;20024;-71
2021/01/08 09:13:18;;;;;;;7.07;4.55;;;;;;;-0.25;80.66;100430.38;5065307;28;20044;-70
2021/01/08 09:16:05;;;;;;;6.05;3.78;;;;;;;-0.15;80.12;100441.78;5065832;28;20020;-70
2021/01/08 09:18:39;;;;;;;9.90;4.57;;;;;;;-0.37;80.47;100418.06;5065927;28;20025;-70
2021/01/08 09:21:24;;;;;;;7.93;4.00;;;;;;;-0.30;80.22;100437.00;5083537;28;20025;-70
2021/01/08 09:23:52;;;;;;;6.90;4.07;;;;;;;-0.33;80.55;100431.78;5067026;28;20017;-70
2021/01/08 09:26:19;;;;;;;8.43;4.03;;;;;;;-0.40;80.45;100423.91;5065510;28;20025;-70
2021/01/08 09:28:53;;;;;;;8.50;4.82;;;;;;;-0.20;80.65;100453.50;5066766;28;20040;-71
2021/01/08 09:31:20;;;;;;;7.20;3.42;;;;;;;-0.21;80.55;100449.22;5066982;28;20029;-71
2021/01/08 09:33:59;;;;;;;6.65;3.65;;;;;;;-0.20;80.49;100450.97;5067177;28;20066;-70
2021/01/08 09:36:32;;;;;;;7.38;4.30;;;;;;;-0.23;80.71;100456.84;5066923;28;20029;-71
2021/01/08 09:38:59;;;;;;;7.03;4.45;;;;;;;-0.27;80.60;100453.28;5066593;28;20029;-70
2021/01/08 09:41:24;;;;;;;5.55;3.05;;;;;;;-0.23;80.50;100461.06;5065841;28;20025;-71
2021/01/08 09:44:00;;;;;;;7.25;4.05;;;;;;;-0.21;80.71;100454.34;5064228;28;20078;-70
2021/01/08 09:46:26;;;;;;;6.88;4.35;;;;;;;-0.23;80.67;100448.31;5066262;28;20359;-70
2021/01/08 09:48:52;;;;;;;7.93;4.53;;;;;;;-0.37;80.66;100438.47;5066621;28;20381;-69
2021/01/08 09:51:18;;;;;;;7.25;4.55;;;;;;;-0.34;80.71;100440.25;5066643;28;20032;-70
2021/01/08 09:53:54;;;;;;;8.65;4.63;;;;;;;-0.27;80.76;100455.84;5064746;28;20041;-70
2021/01/08 09:56:20;;;;;;;6.07;3.58;;;;;;;-0.33;80.86;100462.41;5066235;28;20059;-70
2021/01/08 09:58:45;;;;;;;5.85;3.28;;;;;;;-0.35;80.95;100452.13;5066334;28;20074;-70
2021/01/08 10:01:14;;;;;;;4.45;2.92;;;;;;;-0.44;81.19;100447.56;5066383;28;20048;-70
2021/01/08 10:03:41;;;;;;;6.43;3.78;;;;;;;-0.49;81.30;100449.06;5066112;28;20080;-71
2021/01/08 10:06:11;;;;;;;7.80;4.95;;;;;;;-0.41;81.42;100463.00;5065908;28;20473;-71
2021/01/08 10:08:37;;;;;;;8.07;4.40;;;;;;;-0.41;81.28;100463.00;5066014;28;20052;-72
2021/01/08 10:11:06;;;;;;;9.35;4.55;;;;;;;-0.45;81.55;100462.81;5066022;28;20024;-71
2021/01/08 10:13:32;;;;;;;8.55;5.45;;;;;;;-0.41;81.48;100460.44;5066090;28;20051;-71
2021/01/08 10:16:09;;;;;;;9.07;4.78;;;;;;;-0.34;81.42;100461.53;5081273;28;20025;-73
2021/01/08 10:18:36;;;;;;;9.07;5.47;;;;;;;-0.43;81.65;100449.31;5066149;28;20025;-72
2021/01/08 10:21:13;;;;;;;9.35;4.53;;;;;;;-0.41;81.84;100464.66;5063318;28;20094;-72
2021/01/08 10:23:40;;;;;;;5.93;3.70;;;;;;;-0.47;81.88;100459.34;5065788;28;20028;-71
2021/01/08 10:26:17;;;;;;;9.77;5.15;;;;;;;-0.44;82.00;100465.44;5065512;28;20021;-71
2021/01/08 10:28:47;;;;;;;6.88;3.75;;;;;;;-0.43;82.00;100466.31;5081189;28;20025;-69
2021/01/08 10:31:14;;;;;;;9.85;5.40;;;;;;;-0.44;82.07;100465.44;5065803;28;20067;-70
2021/01/08 10:33:40;;;;;;;9.43;5.32;;;;;;;-0.41;82.08;100469.75;5065575;28;20021;-69
2021/01/08 10:36:06;;;;;;;6.45;3.38;;;;;;;-0.41;82.16;100470.66;5065587;28;20032;-71
2021/01/08 10:38:32;;;;;;;6.93;4.47;;;;;;;-0.40;82.12;100464.72;5065861;28;20025;-71
2021/01/08 10:40:57;;;;;;;9.25;4.80;;;;;;;-0.41;82.35;100468.09;5065677;28;20017;-69
2021/01/08 10:43:22;;;;;;;9.10;5.45;;;;;;;-0.36;82.45;100460.63;5065593;28;20360;-70
2021/01/08 10:45:48;;;;;;;9.75;5.03;;;;;;;-0.30;81.97;100470.16;5065533;28;20036;-70
2021/01/08 10:48:13;;;;;;;6.53;3.70;;;;;;;-0.32;82.31;100461.59;5081098;28;20125;-70
2021/01/08 10:50:38;;;;;;;6.72;4.05;;;;;;;-0.28;82.35;100460.88;5065558;28;20027;-70
2021/01/08 10:53:04;;;;;;;7.20;4.10;;;;;;;-0.23;82.34;100459.38;5065380;28;20053;-69
2021/01/08 10:55:29;;;;;;;9.90;4.78;;;;;;;-0.22;82.35;100455.16;5064627;28;20017;-71
2021/01/08 10:57:55;;;;;;;6.00;4.00;;;;;;;-0.17;82.22;100461.28;5061775;28;20071;-71
2021/01/08 11:00:21;;;;;;;8.75;4.22;;;;;;;-0.14;82.29;100463.94;5061852;28;20021;-70
2021/01/08 11:02:46;;;;;;;6.30;3.25;;;;;;;-0.15;82.14;100472.41;5061939;28;20032;-70
2021/01/08 11:05:12;;;;;;;8.18;4.10;;;;;;;-0.21;82.28;100469.66;5061289;28;20445;-72
2021/01/08 11:07:38;;;;;;;6.55;3.92;;;;;;;-0.25;82.63;100466.09;5061307;28;20418;-70
2021/01/08 11:10:05;;;;;;;7.07;4.47;;;;;;;-0.16;82.50;100469.00;5060892;28;20028;-70
2021/01/08 11:12:31;;;;;;;7.88;4.82;;;;;;;-0.16;82.59;100463.88;5062015;28;20028;-70
2021/01/08 11:14:57;;;;;;;8.18;3.78;;;;;;;-0.10;82.49;100470.03;5080337;28;20013;-70
2021/01/08 11:17:23;;;;;;;7.32;3.85;;;;;;;-0.09;82.50;100469.22;5064813;28;20035;-70
2021/01/08 11:19:48;;;;;;;7.88;3.83;;;;;;;-0.05;82.27;100471.94;5064895;28;20021;-70
2021/01/08 11:22:14;;;;;;;3.78;2.67;;;;;;;-0.08;82.30;100468.41;5064733;28;20048;-70
2021/01/08 11:24:40;;;;;;;6.88;4.13;;;;;;;-0.14;82.45;100471.59;5064157;28;20021;-70
2021/01/08 11:27:06;;;;;;;7.43;3.90;;;;;;;-0.21;82.50;100470.53;5079404;28;20044;-70
2021/01/08 11:29:31;;;;;;;10.50;4.13;;;;;;;-0.19;82.57;100480.78;5064513;28;20021;-70